sensor_id;sensor_type;location;lat;lon;timestamp;temperature;humidity
1602;DHT22;794;48.592;9.634;2022-12-31T00:01:18;11.40;1.00
1602;DHT22;794;48.592;9.634;2022-12-31T00:03:45;12.20;1.00
1602;DHT22;794;48.592;9.634;2022-12-31T00:06:17;11.40;1.00
1602;DHT22;794;48.592;9.634;2022-12-31T00:08:46;11.50;1.00
1602;DHT22;794;48.592;9.634;2022-12-31T00:11:15;11.60;1.00
1602;DHT22;794;48.592;9.634;2022-12-31T00:13:42;11.60;1.00
1602;DHT22;794;48.592;9.634;2022-12-31T00:16:13;11.40;1.00
1602;DHT22;794;48.592;9.634;2022-12-31T00:18:43;11.90;1.00
1602;DHT22;794;48.592;9.634;2022-12-31T00:21:11;12.00;1.00
1602;DHT22;794;48.592;9.634;2022-12-31T00:23:38;11.70;1.00
1602;DHT22;794;48.592;9.634;2022-12-31T00:26:07;11.70;1.00
1602;DHT22;794;48.592;9.634;2022-12-31T00:28:38;11.70;1.00
1602;DHT22;794;48.592;9.634;2022-12-31T00:31:06;12.00;1.00
1602;DHT22;794;48.592;9.634;2022-12-31T00:36:05;11.90;1.00
1602;DHT22;794;48.592;9.634;2022-12-31T00:38:34;11.80;1.00
1602;DHT22;794;48.592;9.634;2022-12-31T00:45:57;11.90;1.00
1602;DHT22;794;48.592;9.634;2022-12-31T01:03:10;12.00;1.00
1602;DHT22;794;48.592;9.634;2022-12-31T01:18:12;12.10;1.00
1602;DHT22;794;48.592;9.634;2022-12-31T01:20:41;12.30;1.00
1602;DHT22;794;48.592;9.634;2022-12-31T01:23:10;12.10;1.00
1602;DHT22;794;48.592;9.634;2022-12-31T01:25:38;11.90;1.00
1602;DHT22;794;48.592;9.634;2022-12-31T01:28:07;12.30;1.00
1602;DHT22;794;48.592;9.634;2022-12-31T01:30:37;11.90;1.00
1602;DHT22;794;48.592;9.634;2022-12-31T01:35:34;12.20;1.00
1602;DHT22;794;48.592;9.634;2022-12-31T01:42:57;11.90;1.00
1602;DHT22;794;48.592;9.634;2022-12-31T01:47:55;12.30;1.00
1602;DHT22;794;48.592;9.634;2022-12-31T01:50:27;12.20;1.00
1602;DHT22;794;48.592;9.634;2022-12-31T01:52:58;12.20;1.00
1602;DHT22;794;48.592;9.634;2022-12-31T01:55:29;12.00;1.00
1602;DHT22;794;48.592;9.634;2022-12-31T01:58:02;12.30;1.00
1602;DHT22;794;48.592;9.634;2022-12-31T02:00:31;12.20;1.00
1602;DHT22;794;48.592;9.634;2022-12-31T02:05:29;12.30;1.00
1602;DHT22;794;48.592;9.634;2022-12-31T02:07:59;12.10;1.00
1602;DHT22;794;48.592;9.634;2022-12-31T02:15:29;12.20;1.00
1602;DHT22;794;48.592;9.634;2022-12-31T02:18:05;11.90;1.00
1602;DHT22;794;48.592;9.634;2022-12-31T02:20:53;12.10;1.00
1602;DHT22;794;48.592;9.634;2022-12-31T02:26:52;12.20;1.00
1602;DHT22;794;48.592;9.634;2022-12-31T02:29:54;12.70;1.00
1602;DHT22;794;48.592;9.634;2022-12-31T02:32:31;12.50;1.00
1602;DHT22;794;48.592;9.634;2022-12-31T02:35:03;12.30;1.00
1602;DHT22;794;48.592;9.634;2022-12-31T02:37:32;12.60;1.00
1602;DHT22;794;48.592;9.634;2022-12-31T02:40:02;12.50;1.00
1602;DHT22;794;48.592;9.634;2022-12-31T02:44:58;12.70;1.00
1602;DHT22;794;48.592;9.634;2022-12-31T02:47:36;12.90;1.00
1602;DHT22;794;48.592;9.634;2022-12-31T02:50:19;13.20;1.00
1602;DHT22;794;48.592;9.634;2022-12-31T02:52:56;13.20;1.00
1602;DHT22;794;48.592;9.634;2022-12-31T02:55:29;13.60;1.00
1602;DHT22;794;48.592;9.634;2022-12-31T02:58:04;13.50;1.00
1602;DHT22;794;48.592;9.634;2022-12-31T03:00:38;13.60;1.00
1602;DHT22;794;48.592;9.634;2022-12-31T03:03:25;13.80;1.00
1602;DHT22;794;48.592;9.634;2022-12-31T03:08:20;13.50;1.00
1602;DHT22;794;48.592;9.634;2022-12-31T03:15:43;13.60;1.00
1602;DHT22;794;48.592;9.634;2022-12-31T03:18:11;13.50;1.00
1602;DHT22;794;48.592;9.634;2022-12-31T03:20:40;13.70;1.00
1602;DHT22;794;48.592;9.634;2022-12-31T03:23:27;13.80;1.00
1602;DHT22;794;48.592;9.634;2022-12-31T03:25:55;13.60;1.00
1602;DHT22;794;48.592;9.634;2022-12-31T03:28:24;13.90;1.00
1602;DHT22;794;48.592;9.634;2022-12-31T03:30:54;13.70;1.00
1602;DHT22;794;48.592;9.634;2022-12-31T03:33:23;13.70;1.00
1602;DHT22;794;48.592;9.634;2022-12-31T03:40:48;13.50;1.00
1602;DHT22;794;48.592;9.634;2022-12-31T03:48:12;13.30;1.00
1602;DHT22;794;48.592;9.634;2022-12-31T04:05:24;13.10;1.00
1602;DHT22;794;48.592;9.634;2022-12-31T04:15:16;13.10;1.00
1602;DHT22;794;48.592;9.634;2022-12-31T04:20:11;12.80;1.00
1602;DHT22;794;48.592;9.634;2022-12-31T04:22:40;13.00;1.00
1602;DHT22;794;48.592;9.634;2022-12-31T04:27:37;13.20;1.00
1602;DHT22;794;48.592;9.634;2022-12-31T04:30:05;13.20;1.00
1602;DHT22;794;48.592;9.634;2022-12-31T04:32:32;13.10;1.00
1602;DHT22;794;48.592;9.634;2022-12-31T04:34:59;13.40;1.00
1602;DHT22;794;48.592;9.634;2022-12-31T04:37:26;13.50;1.00
1602;DHT22;794;48.592;9.634;2022-12-31T04:39:55;13.20;1.00
1602;DHT22;794;48.592;9.634;2022-12-31T04:57:07;13.20;1.00
1602;DHT22;794;48.592;9.634;2022-12-31T05:02:01;13.00;1.00
1602;DHT22;794;48.592;9.634;2022-12-31T05:14:21;12.80;1.00
1602;DHT22;794;48.592;9.634;2022-12-31T05:16:48;13.00;1.00
1602;DHT22;794;48.592;9.634;2022-12-31T05:19:15;13.10;1.00
1602;DHT22;794;48.592;9.634;2022-12-31T05:21:42;13.10;1.00
1602;DHT22;794;48.592;9.634;2022-12-31T05:26:56;12.70;1.00
1602;DHT22;794;48.592;9.634;2022-12-31T05:29:24;13.20;1.00
1602;DHT22;794;48.592;9.634;2022-12-31T05:32:01;12.70;1.00
1602;DHT22;794;48.592;9.634;2022-12-31T05:36:55;12.70;1.00
1602;DHT22;794;48.592;9.634;2022-12-31T05:46:45;12.60;1.00
1602;DHT22;794;48.592;9.634;2022-12-31T06:03:57;12.40;1.00
1602;DHT22;794;48.592;9.634;2022-12-31T06:11:18;12.40;1.00
1602;DHT22;794;48.592;9.634;2022-12-31T06:18:40;12.70;1.00
1602;DHT22;794;48.592;9.634;2022-12-31T06:21:08;12.90;1.00
1602;DHT22;794;48.592;9.634;2022-12-31T06:23:35;13.10;1.00
1602;DHT22;794;48.592;9.634;2022-12-31T06:26:03;12.80;1.00
1602;DHT22;794;48.592;9.634;2022-12-31T06:30:58;12.90;1.00
1602;DHT22;794;48.592;9.634;2022-12-31T06:35:54;12.80;1.00
1602;DHT22;794;48.592;9.634;2022-12-31T06:38:23;12.90;1.00
1602;DHT22;794;48.592;9.634;2022-12-31T06:50:40;12.70;1.00
1602;DHT22;794;48.592;9.634;2022-12-31T06:55:37;12.50;1.00
1602;DHT22;794;48.592;9.634;2022-12-31T06:58:04;12.60;1.00
1602;DHT22;794;48.592;9.634;2022-12-31T07:03:14;13.00;1.00
1602;DHT22;794;48.592;9.634;2022-12-31T07:05:46;12.50;1.00
1602;DHT22;794;48.592;9.634;2022-12-31T07:08:24;12.60;1.00
1602;DHT22;794;48.592;9.634;2022-12-31T07:11:02;10.90;1.00
1602;DHT22;794;48.592;9.634;2022-12-31T07:13:54;12.20;1.00
1602;DHT22;794;48.592;9.634;2022-12-31T07:16:35;11.00;1.00
1602;DHT22;794;48.592;9.634;2022-12-31T07:19:15;12.40;1.00
1602;DHT22;794;48.592;9.634;2022-12-31T07:24:11;12.30;1.00
1602;DHT22;794;48.592;9.634;2022-12-31T07:26:54;11.60;1.00
1602;DHT22;794;48.592;9.634;2022-12-31T07:29:30;13.00;1.00
1602;DHT22;794;48.592;9.634;2022-12-31T07:32:09;12.40;1.00
1602;DHT22;794;48.592;9.634;2022-12-31T07:34:45;12.50;1.00
1602;DHT22;794;48.592;9.634;2022-12-31T07:37:21;12.70;1.00
1602;DHT22;794;48.592;9.634;2022-12-31T07:40:00;12.40;1.00
1602;DHT22;794;48.592;9.634;2022-12-31T07:42:35;12.60;1.00
1602;DHT22;794;48.592;9.634;2022-12-31T07:45:09;12.40;1.00
1602;DHT22;794;48.592;9.634;2022-12-31T07:50:13;12.60;1.00
1602;DHT22;794;48.592;9.634;2022-12-31T07:52:41;13.10;1.00
1602;DHT22;794;48.592;9.634;2022-12-31T07:55:08;13.00;1.00
1602;DHT22;794;48.592;9.634;2022-12-31T07:57:41;12.60;1.00
1602;DHT22;794;48.592;9.634;2022-12-31T08:00:14;12.90;1.00
1602;DHT22;794;48.592;9.634;2022-12-31T08:02:59;13.00;1.00
1602;DHT22;794;48.592;9.634;2022-12-31T08:05:32;13.00;1.00
1602;DHT22;794;48.592;9.634;2022-12-31T08:08:12;13.00;1.00
1602;DHT22;794;48.592;9.634;2022-12-31T08:10:45;12.80;1.00
1602;DHT22;794;48.592;9.634;2022-12-31T08:13:17;13.10;1.00
1602;DHT22;794;48.592;9.634;2022-12-31T08:15:44;13.00;1.00
1602;DHT22;794;48.592;9.634;2022-12-31T08:18:12;13.40;1.00
1602;DHT22;794;48.592;9.634;2022-12-31T08:20:45;13.50;1.00
1602;DHT22;794;48.592;9.634;2022-12-31T08:23:26;13.40;1.00
1602;DHT22;794;48.592;9.634;2022-12-31T08:26:12;13.20;1.00
1602;DHT22;794;48.592;9.634;2022-12-31T08:29:00;13.10;1.00
1602;DHT22;794;48.592;9.634;2022-12-31T08:31:33;13.70;1.00
1602;DHT22;794;48.592;9.634;2022-12-31T08:34:09;13.60;1.00
1602;DHT22;794;48.592;9.634;2022-12-31T08:36:46;13.20;1.00
1602;DHT22;794;48.592;9.634;2022-12-31T08:39:21;13.10;1.00
1602;DHT22;794;48.592;9.634;2022-12-31T08:41:53;13.30;1.00
1602;DHT22;794;48.592;9.634;2022-12-31T08:44:27;13.10;1.00
1602;DHT22;794;48.592;9.634;2022-12-31T08:47:08;13.60;1.00
1602;DHT22;794;48.592;9.634;2022-12-31T08:49:39;14.20;1.00
1602;DHT22;794;48.592;9.634;2022-12-31T08:52:14;13.80;1.00
1602;DHT22;794;48.592;9.634;2022-12-31T08:57:15;14.10;1.00
1602;DHT22;794;48.592;9.634;2022-12-31T08:59:53;14.50;1.00
1602;DHT22;794;48.592;9.634;2022-12-31T09:02:35;14.30;1.00
1602;DHT22;794;48.592;9.634;2022-12-31T09:05:14;14.50;1.00
1602;DHT22;794;48.592;9.634;2022-12-31T09:07:50;14.20;1.00
1602;DHT22;794;48.592;9.634;2022-12-31T09:10:23;14.40;1.00
1602;DHT22;794;48.592;9.634;2022-12-31T09:12:59;14.90;1.00
1602;DHT22;794;48.592;9.634;2022-12-31T09:15:35;14.90;1.00
1602;DHT22;794;48.592;9.634;2022-12-31T09:18:03;15.00;1.00
1602;DHT22;794;48.592;9.634;2022-12-31T09:20:32;14.80;1.00
1602;DHT22;794;48.592;9.634;2022-12-31T09:23:00;15.20;1.00
1602;DHT22;794;48.592;9.634;2022-12-31T09:25:28;14.90;1.00
1602;DHT22;794;48.592;9.634;2022-12-31T09:28:13;14.70;1.00
1602;DHT22;794;48.592;9.634;2022-12-31T09:30:49;15.10;1.00
1602;DHT22;794;48.592;9.634;2022-12-31T09:33:30;15.40;1.00
1602;DHT22;794;48.592;9.634;2022-12-31T09:36:00;15.40;1.00
1602;DHT22;794;48.592;9.634;2022-12-31T09:38:35;15.70;1.00
1602;DHT22;794;48.592;9.634;2022-12-31T09:41:14;16.10;1.00
1602;DHT22;794;48.592;9.634;2022-12-31T09:44:21;15.40;1.00
1602;DHT22;794;48.592;9.634;2022-12-31T09:50:37;15.40;1.00
1602;DHT22;794;48.592;9.634;2022-12-31T09:53:34;15.80;1.00
1602;DHT22;794;48.592;9.634;2022-12-31T09:56:08;15.40;1.00
1602;DHT22;794;48.592;9.634;2022-12-31T09:58:42;15.80;1.00
1602;DHT22;794;48.592;9.634;2022-12-31T10:01:20;15.50;1.00
1602;DHT22;794;48.592;9.634;2022-12-31T10:06:56;15.70;1.00
1602;DHT22;794;48.592;9.634;2022-12-31T10:18:04;16.90;1.00
1602;DHT22;794;48.592;9.634;2022-12-31T10:20:54;17.80;1.00
1602;DHT22;794;48.592;9.634;2022-12-31T10:23:54;17.00;1.00
1602;DHT22;794;48.592;9.634;2022-12-31T10:26:36;17.20;1.00
1602;DHT22;794;48.592;9.634;2022-12-31T10:29:13;17.60;1.00
1602;DHT22;794;48.592;9.634;2022-12-31T10:31:55;18.00;1.00
1602;DHT22;794;48.592;9.634;2022-12-31T10:34:30;17.90;1.00
1602;DHT22;794;48.592;9.634;2022-12-31T10:37:07;17.90;1.00
1602;DHT22;794;48.592;9.634;2022-12-31T10:39:46;18.50;1.00
1602;DHT22;794;48.592;9.634;2022-12-31T10:42:41;18.10;1.00
1602;DHT22;794;48.592;9.634;2022-12-31T10:49:03;17.40;1.00
1602;DHT22;794;48.592;9.634;2022-12-31T10:58:09;16.80;1.00
1602;DHT22;794;48.592;9.634;2022-12-31T11:00:47;16.90;1.00
1602;DHT22;794;48.592;9.634;2022-12-31T11:03:56;17.30;1.00
1602;DHT22;794;48.592;9.634;2022-12-31T11:13:38;17.80;1.00
1602;DHT22;794;48.592;9.634;2022-12-31T11:16:21;17.70;1.00
1602;DHT22;794;48.592;9.634;2022-12-31T11:18:54;17.60;1.00
1602;DHT22;794;48.592;9.634;2022-12-31T11:21:35;17.30;1.00
1602;DHT22;794;48.592;9.634;2022-12-31T11:24:12;17.70;1.00
1602;DHT22;794;48.592;9.634;2022-12-31T11:26:54;17.30;1.00
1602;DHT22;794;48.592;9.634;2022-12-31T11:29:47;17.20;1.00
1602;DHT22;794;48.592;9.634;2022-12-31T11:32:25;17.20;1.00
1602;DHT22;794;48.592;9.634;2022-12-31T11:35:19;17.40;1.00
1602;DHT22;794;48.592;9.634;2022-12-31T11:37:49;17.00;1.00
1602;DHT22;794;48.592;9.634;2022-12-31T11:40:38;17.10;1.00
1602;DHT22;794;48.592;9.634;2022-12-31T11:43:19;17.30;1.00
1602;DHT22;794;48.592;9.634;2022-12-31T11:46:12;17.60;1.00
1602;DHT22;794;48.592;9.634;2022-12-31T11:48:49;17.50;1.00
1602;DHT22;794;48.592;9.634;2022-12-31T11:51:41;17.30;1.00
1602;DHT22;794;48.592;9.634;2022-12-31T11:54:36;17.00;1.00
1602;DHT22;794;48.592;9.634;2022-12-31T11:57:17;17.00;1.00
1602;DHT22;794;48.592;9.634;2022-12-31T11:59:49;18.90;1.00
1602;DHT22;794;48.592;9.634;2022-12-31T12:02:26;17.00;1.00
1602;DHT22;794;48.592;9.634;2022-12-31T12:04:57;16.90;1.00
1602;DHT22;794;48.592;9.634;2022-12-31T12:07:25;17.00;1.00
1602;DHT22;794;48.592;9.634;2022-12-31T12:09:54;17.00;1.00
1602;DHT22;794;48.592;9.634;2022-12-31T12:12:21;17.20;1.00
1602;DHT22;794;48.592;9.634;2022-12-31T12:14:51;17.10;1.00
1602;DHT22;794;48.592;9.634;2022-12-31T12:17:26;17.00;1.00
1602;DHT22;794;48.592;9.634;2022-12-31T12:19:59;17.10;1.00
1602;DHT22;794;48.592;9.634;2022-12-31T12:22:28;17.00;1.00
1602;DHT22;794;48.592;9.634;2022-12-31T12:24:57;17.10;1.00
1602;DHT22;794;48.592;9.634;2022-12-31T12:27:30;17.40;1.00
1602;DHT22;794;48.592;9.634;2022-12-31T12:29:57;17.50;1.00
1602;DHT22;794;48.592;9.634;2022-12-31T12:32:34;17.40;1.00
1602;DHT22;794;48.592;9.634;2022-12-31T12:35:12;17.50;1.00
1602;DHT22;794;48.592;9.634;2022-12-31T12:37:40;17.50;1.00
1602;DHT22;794;48.592;9.634;2022-12-31T12:40:19;17.10;1.00
1602;DHT22;794;48.592;9.634;2022-12-31T12:42:47;17.30;1.00
1602;DHT22;794;48.592;9.634;2022-12-31T12:45:16;17.60;1.00
1602;DHT22;794;48.592;9.634;2022-12-31T12:47:46;17.30;1.00
1602;DHT22;794;48.592;9.634;2022-12-31T12:50:18;17.70;1.00
1602;DHT22;794;48.592;9.634;2022-12-31T12:55:56;17.40;1.00
1602;DHT22;794;48.592;9.634;2022-12-31T12:58:37;17.00;1.00
1602;DHT22;794;48.592;9.634;2022-12-31T13:01:15;17.30;1.00
1602;DHT22;794;48.592;9.634;2022-12-31T13:04:13;17.10;1.00
1602;DHT22;794;48.592;9.634;2022-12-31T13:06:55;17.60;1.00
1602;DHT22;794;48.592;9.634;2022-12-31T13:09:32;17.80;1.00
1602;DHT22;794;48.592;9.634;2022-12-31T13:12:10;17.40;1.00
1602;DHT22;794;48.592;9.634;2022-12-31T13:14:45;17.20;1.00
1602;DHT22;794;48.592;9.634;2022-12-31T13:17:42;17.20;1.00
1602;DHT22;794;48.592;9.634;2022-12-31T13:20:18;17.10;1.00
1602;DHT22;794;48.592;9.634;2022-12-31T13:22:53;17.10;1.00
1602;DHT22;794;48.592;9.634;2022-12-31T13:25:27;17.00;1.00
1602;DHT22;794;48.592;9.634;2022-12-31T13:27:59;17.10;1.00
1602;DHT22;794;48.592;9.634;2022-12-31T13:30:31;17.10;1.00
1602;DHT22;794;48.592;9.634;2022-12-31T13:33:02;17.00;1.00
1602;DHT22;794;48.592;9.634;2022-12-31T13:35:38;16.80;1.00
1602;DHT22;794;48.592;9.634;2022-12-31T13:38:12;16.80;1.00
1602;DHT22;794;48.592;9.634;2022-12-31T13:40:47;16.90;1.00
1602;DHT22;794;48.592;9.634;2022-12-31T13:43:18;16.70;1.00
1602;DHT22;794;48.592;9.634;2022-12-31T13:45:56;16.50;1.00
1602;DHT22;794;48.592;9.634;2022-12-31T13:48:31;16.60;1.00
1602;DHT22;794;48.592;9.634;2022-12-31T13:51:06;16.60;1.00
1602;DHT22;794;48.592;9.634;2022-12-31T13:53:41;16.70;1.00
1602;DHT22;794;48.592;9.634;2022-12-31T13:56:13;16.50;1.00
1602;DHT22;794;48.592;9.634;2022-12-31T13:58:45;17.00;1.00
1602;DHT22;794;48.592;9.634;2022-12-31T14:01:18;16.60;1.00
1602;DHT22;794;48.592;9.634;2022-12-31T14:03:53;16.50;1.00
1602;DHT22;794;48.592;9.634;2022-12-31T14:06:30;16.60;1.00
1602;DHT22;794;48.592;9.634;2022-12-31T14:08:59;16.30;1.00
1602;DHT22;794;48.592;9.634;2022-12-31T14:14:25;16.20;1.00
1602;DHT22;794;48.592;9.634;2022-12-31T14:16:58;16.00;1.00
1602;DHT22;794;48.592;9.634;2022-12-31T14:19:40;16.50;1.00
1602;DHT22;794;48.592;9.634;2022-12-31T14:22:15;16.10;1.00
1602;DHT22;794;48.592;9.634;2022-12-31T14:24:46;15.80;1.00
1602;DHT22;794;48.592;9.634;2022-12-31T14:27:18;15.50;1.00
1602;DHT22;794;48.592;9.634;2022-12-31T14:29:48;15.50;1.00
1602;DHT22;794;48.592;9.634;2022-12-31T14:32:36;16.00;1.00
1602;DHT22;794;48.592;9.634;2022-12-31T14:35:23;15.20;1.00
1602;DHT22;794;48.592;9.634;2022-12-31T14:37:57;15.20;1.00
1602;DHT22;794;48.592;9.634;2022-12-31T14:40:31;15.10;1.00
1602;DHT22;794;48.592;9.634;2022-12-31T14:43:12;14.90;1.00
1602;DHT22;794;48.592;9.634;2022-12-31T14:45:52;15.00;1.00
1602;DHT22;794;48.592;9.634;2022-12-31T14:48:31;14.60;1.00
1602;DHT22;794;48.592;9.634;2022-12-31T14:51:00;14.80;1.00
1602;DHT22;794;48.592;9.634;2022-12-31T14:53:29;14.30;1.00
1602;DHT22;794;48.592;9.634;2022-12-31T14:55:58;14.50;1.00
1602;DHT22;794;48.592;9.634;2022-12-31T14:58:31;14.20;1.00
1602;DHT22;794;48.592;9.634;2022-12-31T15:01:00;13.90;1.00
1602;DHT22;794;48.592;9.634;2022-12-31T15:03:34;13.90;1.00
1602;DHT22;794;48.592;9.634;2022-12-31T15:06:13;13.80;1.00
1602;DHT22;794;48.592;9.634;2022-12-31T15:08:57;14.20;1.00
1602;DHT22;794;48.592;9.634;2022-12-31T15:11:40;13.80;1.00
1602;DHT22;794;48.592;9.634;2022-12-31T15:14:32;13.90;1.00
1602;DHT22;794;48.592;9.634;2022-12-31T15:17:08;13.70;1.00
1602;DHT22;794;48.592;9.634;2022-12-31T15:22:54;12.80;1.00
1602;DHT22;794;48.592;9.634;2022-12-31T15:25:26;13.00;1.00
1602;DHT22;794;48.592;9.634;2022-12-31T15:27:58;12.80;1.00
1602;DHT22;794;48.592;9.634;2022-12-31T15:30:36;12.60;1.00
1602;DHT22;794;48.592;9.634;2022-12-31T15:33:05;12.70;1.00
1602;DHT22;794;48.592;9.634;2022-12-31T15:35:45;12.50;1.00
1602;DHT22;794;48.592;9.634;2022-12-31T15:38:34;12.60;1.00
1602;DHT22;794;48.592;9.634;2022-12-31T15:41:27;12.30;1.00
1602;DHT22;794;48.592;9.634;2022-12-31T15:43:58;12.20;1.00
1602;DHT22;794;48.592;9.634;2022-12-31T15:46:30;12.60;1.00
1602;DHT22;794;48.592;9.634;2022-12-31T15:49:01;12.10;1.00
1602;DHT22;794;48.592;9.634;2022-12-31T15:51:32;12.30;1.00
1602;DHT22;794;48.592;9.634;2022-12-31T15:54:03;11.90;1.00
1602;DHT22;794;48.592;9.634;2022-12-31T15:56:36;11.90;1.00
1602;DHT22;794;48.592;9.634;2022-12-31T15:59:10;12.10;1.00
1602;DHT22;794;48.592;9.634;2022-12-31T16:01:40;11.70;1.00
1602;DHT22;794;48.592;9.634;2022-12-31T16:04:15;11.90;1.00
1602;DHT22;794;48.592;9.634;2022-12-31T16:06:44;11.60;1.00
1602;DHT22;794;48.592;9.634;2022-12-31T16:09:19;11.40;1.00
1602;DHT22;794;48.592;9.634;2022-12-31T16:11:49;11.80;1.00
1602;DHT22;794;48.592;9.634;2022-12-31T16:14:20;11.70;1.00
1602;DHT22;794;48.592;9.634;2022-12-31T16:16:53;11.70;1.00
1602;DHT22;794;48.592;9.634;2022-12-31T16:19:30;11.50;1.00
1602;DHT22;794;48.592;9.634;2022-12-31T16:22:01;11.50;1.00
1602;DHT22;794;48.592;9.634;2022-12-31T16:24:31;11.40;1.00
1602;DHT22;794;48.592;9.634;2022-12-31T16:27:01;11.70;1.00
1602;DHT22;794;48.592;9.634;2022-12-31T16:29:31;11.10;1.00
1602;DHT22;794;48.592;9.634;2022-12-31T16:32:01;11.60;1.00
1602;DHT22;794;48.592;9.634;2022-12-31T16:34:28;11.10;1.00
1602;DHT22;794;48.592;9.634;2022-12-31T16:37:02;11.60;1.00
1602;DHT22;794;48.592;9.634;2022-12-31T16:39:31;11.20;1.00
1602;DHT22;794;48.592;9.634;2022-12-31T16:42:16;11.20;1.00
1602;DHT22;794;48.592;9.634;2022-12-31T16:44:44;11.30;1.00
1602;DHT22;794;48.592;9.634;2022-12-31T16:47:17;11.20;1.00
1602;DHT22;794;48.592;9.634;2022-12-31T16:49:47;11.30;1.00
1602;DHT22;794;48.592;9.634;2022-12-31T16:52:25;10.80;1.00
1602;DHT22;794;48.592;9.634;2022-12-31T16:54:54;11.00;1.00
1602;DHT22;794;48.592;9.634;2022-12-31T16:57:27;10.70;1.00
1602;DHT22;794;48.592;9.634;2022-12-31T17:00:00;9.40;1.00
1602;DHT22;794;48.592;9.634;2022-12-31T17:02:33;11.00;1.00
1602;DHT22;794;48.592;9.634;2022-12-31T17:05:02;10.70;1.00
1602;DHT22;794;48.592;9.634;2022-12-31T17:07:39;10.90;1.00
1602;DHT22;794;48.592;9.634;2022-12-31T17:10:17;9.50;1.00
1602;DHT22;794;48.592;9.634;2022-12-31T17:12:47;10.70;1.00
1602;DHT22;794;48.592;9.634;2022-12-31T17:15:20;10.90;1.00
1602;DHT22;794;48.592;9.634;2022-12-31T17:17:51;10.80;1.00
1602;DHT22;794;48.592;9.634;2022-12-31T17:20:23;10.70;1.00
1602;DHT22;794;48.592;9.634;2022-12-31T17:22:53;10.80;1.00
1602;DHT22;794;48.592;9.634;2022-12-31T17:25:23;10.70;1.00
1602;DHT22;794;48.592;9.634;2022-12-31T17:27:58;10.40;1.00
1602;DHT22;794;48.592;9.634;2022-12-31T17:30:37;10.60;1.00
1602;DHT22;794;48.592;9.634;2022-12-31T17:33:27;11.00;1.00
1602;DHT22;794;48.592;9.634;2022-12-31T17:35:56;10.70;1.00
1602;DHT22;794;48.592;9.634;2022-12-31T17:38:31;10.30;1.00
1602;DHT22;794;48.592;9.634;2022-12-31T17:41:13;10.20;1.00
1602;DHT22;794;48.592;9.634;2022-12-31T17:43:41;10.40;1.00
1602;DHT22;794;48.592;9.634;2022-12-31T17:46:11;10.40;1.00
1602;DHT22;794;48.592;9.634;2022-12-31T17:48:38;10.30;1.00
1602;DHT22;794;48.592;9.634;2022-12-31T17:51:06;10.70;1.00
1602;DHT22;794;48.592;9.634;2022-12-31T17:53:33;10.40;1.00
1602;DHT22;794;48.592;9.634;2022-12-31T17:56:02;8.80;1.00
1602;DHT22;794;48.592;9.634;2022-12-31T17:58:31;10.80;1.00
1602;DHT22;794;48.592;9.634;2022-12-31T18:01:00;10.60;1.00
1602;DHT22;794;48.592;9.634;2022-12-31T18:03:28;10.60;1.00
1602;DHT22;794;48.592;9.634;2022-12-31T18:05:55;10.50;1.00
1602;DHT22;794;48.592;9.634;2022-12-31T18:08:22;10.20;1.00
1602;DHT22;794;48.592;9.634;2022-12-31T18:10:50;10.20;1.00
1602;DHT22;794;48.592;9.634;2022-12-31T18:13:20;10.00;1.00
1602;DHT22;794;48.592;9.634;2022-12-31T18:15:48;10.10;1.00
1602;DHT22;794;48.592;9.634;2022-12-31T18:18:21;9.90;1.00
1602;DHT22;794;48.592;9.634;2022-12-31T18:20:50;10.20;1.00
1602;DHT22;794;48.592;9.634;2022-12-31T18:23:19;10.20;1.00
1602;DHT22;794;48.592;9.634;2022-12-31T18:25:46;10.00;1.00
1602;DHT22;794;48.592;9.634;2022-12-31T18:28:13;10.40;1.00
1602;DHT22;794;48.592;9.634;2022-12-31T18:30:41;9.80;1.00
1602;DHT22;794;48.592;9.634;2022-12-31T18:33:10;10.40;1.00
1602;DHT22;794;48.592;9.634;2022-12-31T18:35:39;9.90;1.00
1602;DHT22;794;48.592;9.634;2022-12-31T18:38:11;9.90;1.00
1602;DHT22;794;48.592;9.634;2022-12-31T18:40:38;10.00;1.00
1602;DHT22;794;48.592;9.634;2022-12-31T18:43:15;10.10;1.00
1602;DHT22;794;48.592;9.634;2022-12-31T18:45:42;10.20;1.00
1602;DHT22;794;48.592;9.634;2022-12-31T18:48:09;10.50;1.00
1602;DHT22;794;48.592;9.634;2022-12-31T18:50:39;10.20;1.00
1602;DHT22;794;48.592;9.634;2022-12-31T18:53:08;10.40;1.00
1602;DHT22;794;48.592;9.634;2022-12-31T18:55:40;10.90;1.00
1602;DHT22;794;48.592;9.634;2022-12-31T18:58:09;10.50;1.00
1602;DHT22;794;48.592;9.634;2022-12-31T19:00:36;10.50;1.00
1602;DHT22;794;48.592;9.634;2022-12-31T19:03:03;10.50;1.00
1602;DHT22;794;48.592;9.634;2022-12-31T19:05:32;10.40;1.00
1602;DHT22;794;48.592;9.634;2022-12-31T19:08:00;10.30;1.00
1602;DHT22;794;48.592;9.634;2022-12-31T19:10:27;10.40;1.00
1602;DHT22;794;48.592;9.634;2022-12-31T19:12:57;10.20;1.00
1602;DHT22;794;48.592;9.634;2022-12-31T19:15:27;10.30;1.00
1602;DHT22;794;48.592;9.634;2022-12-31T19:17:55;10.60;1.00
1602;DHT22;794;48.592;9.634;2022-12-31T19:20:23;10.40;1.00
1602;DHT22;794;48.592;9.634;2022-12-31T19:22:50;10.10;1.00
1602;DHT22;794;48.592;9.634;2022-12-31T19:25:20;10.00;1.00
1602;DHT22;794;48.592;9.634;2022-12-31T19:27:48;10.70;1.00
1602;DHT22;794;48.592;9.634;2022-12-31T19:30:16;10.10;1.00
1602;DHT22;794;48.592;9.634;2022-12-31T19:32:44;10.20;1.00
1602;DHT22;794;48.592;9.634;2022-12-31T19:35:12;10.10;1.00
1602;DHT22;794;48.592;9.634;2022-12-31T19:37:40;10.60;1.00
1602;DHT22;794;48.592;9.634;2022-12-31T19:40:13;9.90;1.00
1602;DHT22;794;48.592;9.634;2022-12-31T19:42:42;10.20;1.00
1602;DHT22;794;48.592;9.634;2022-12-31T19:45:13;10.00;1.00
1602;DHT22;794;48.592;9.634;2022-12-31T19:47:41;9.80;1.00
1602;DHT22;794;48.592;9.634;2022-12-31T19:50:11;10.10;1.00
1602;DHT22;794;48.592;9.634;2022-12-31T19:52:38;9.80;1.00
1602;DHT22;794;48.592;9.634;2022-12-31T19:55:06;10.00;1.00
1602;DHT22;794;48.592;9.634;2022-12-31T19:57:33;10.00;1.00
1602;DHT22;794;48.592;9.634;2022-12-31T20:00:02;10.20;1.00
1602;DHT22;794;48.592;9.634;2022-12-31T20:02:29;9.80;1.00
1602;DHT22;794;48.592;9.634;2022-12-31T20:04:56;9.70;1.00
1602;DHT22;794;48.592;9.634;2022-12-31T20:09:50;9.70;1.00
1602;DHT22;794;48.592;9.634;2022-12-31T20:12:17;9.90;1.00
1602;DHT22;794;48.592;9.634;2022-12-31T20:14:44;9.90;1.00
1602;DHT22;794;48.592;9.634;2022-12-31T20:17:12;9.70;1.00
1602;DHT22;794;48.592;9.634;2022-12-31T20:19:39;10.00;1.00
1602;DHT22;794;48.592;9.634;2022-12-31T20:22:06;7.90;1.00
1602;DHT22;794;48.592;9.634;2022-12-31T20:24:33;9.70;1.00
1602;DHT22;794;48.592;9.634;2022-12-31T20:27:01;9.70;1.00
1602;DHT22;794;48.592;9.634;2022-12-31T20:29:27;9.50;1.00
1602;DHT22;794;48.592;9.634;2022-12-31T20:31:55;9.70;1.00
1602;DHT22;794;48.592;9.634;2022-12-31T20:34:23;9.80;1.00
1602;DHT22;794;48.592;9.634;2022-12-31T20:36:50;9.90;1.00
1602;DHT22;794;48.592;9.634;2022-12-31T20:39:17;9.80;1.00
1602;DHT22;794;48.592;9.634;2022-12-31T20:41:44;9.90;1.00
1602;DHT22;794;48.592;9.634;2022-12-31T20:44:11;9.70;1.00
1602;DHT22;794;48.592;9.634;2022-12-31T20:46:38;10.00;1.00
1602;DHT22;794;48.592;9.634;2022-12-31T20:49:05;9.50;1.00
1602;DHT22;794;48.592;9.634;2022-12-31T20:51:33;9.60;1.00
1602;DHT22;794;48.592;9.634;2022-12-31T20:54:02;9.80;1.00
1602;DHT22;794;48.592;9.634;2022-12-31T20:56:32;9.60;1.00
1602;DHT22;794;48.592;9.634;2022-12-31T20:59:00;9.70;1.00
1602;DHT22;794;48.592;9.634;2022-12-31T21:01:28;9.80;1.00
1602;DHT22;794;48.592;9.634;2022-12-31T21:03:55;9.80;1.00
1602;DHT22;794;48.592;9.634;2022-12-31T21:06:23;10.50;1.00
1602;DHT22;794;48.592;9.634;2022-12-31T21:08:52;9.70;1.00
1602;DHT22;794;48.592;9.634;2022-12-31T21:11:19;10.20;1.00
1602;DHT22;794;48.592;9.634;2022-12-31T21:14:04;9.80;1.00